createdAt,value
2023-04-29T00:05:17.415Z,3.70
2023-04-29T00:08:26.004Z,4.50
2023-04-29T00:11:32.600Z,14.43
2023-04-29T05:23:44.914Z,15.20
2023-04-29T05:26:51.442Z,14.43
2023-04-29T05:29:57.457Z,18.07
2023-04-29T05:33:03.378Z,18.45
2023-04-29T05:36:08.892Z,20.17
2023-04-29T05:39:14.991Z,16.60
2023-04-29T05:42:22.299Z,13.43
2023-04-29T05:45:27.538Z,15.35
2023-04-29T05:48:25.284Z,19.25
2023-04-29T05:51:29.871Z,14.75
2023-04-29T05:54:35.560Z,22.05
2023-04-29T05:57:28.344Z,17.70
2023-04-29T06:00:27.036Z,26.68
2023-04-29T06:03:33.807Z,17.65
2023-04-29T06:06:59.864Z,19.67
2023-04-29T06:10:06.719Z,14.68
2023-04-29T06:13:14.720Z,13.18
2023-04-29T06:16:22.074Z,15.20
2023-04-29T06:19:27.450Z,15.05
2023-04-29T06:22:33.943Z,8.60
2023-04-29T06:25:39.520Z,9.95
2023-04-29T06:28:45.882Z,4.20
2023-04-29T06:31:52.221Z,5.65
2023-04-29T06:34:59.007Z,6.03
2023-04-29T06:38:22.162Z,6.42
2023-04-29T06:41:30.862Z,5.50
2023-04-29T06:44:53.621Z,6.53
2023-04-29T06:48:10.331Z,6.15
2023-04-29T06:51:18.114Z,5.12
2023-04-29T06:54:24.786Z,4.62
2023-04-29T06:57:30.393Z,8.45
2023-04-29T07:00:36.240Z,4.95
2023-04-29T07:03:41.294Z,4.17
2023-04-29T07:06:47.442Z,5.72
2023-04-29T07:09:53.814Z,7.45
2023-04-29T07:13:00.030Z,4.22
2023-04-29T07:16:05.580Z,5.55
2023-04-29T07:19:12.294Z,4.35
2023-04-29T07:22:17.976Z,4.03
2023-04-29T07:25:23.046Z,5.78
2023-04-29T07:28:28.060Z,6.22
2023-04-29T07:31:35.954Z,5.87
2023-04-29T07:34:41.442Z,6.50
2023-04-29T07:37:46.429Z,11.15
2023-04-29T07:40:53.465Z,6.37
2023-04-29T07:43:58.410Z,7.92
2023-04-29T07:47:03.995Z,8.75
2023-04-29T07:50:10.291Z,4.20
2023-04-29T07:53:17.309Z,6.15
2023-04-29T07:56:23.949Z,6.50
2023-04-29T07:59:30.077Z,7.03
2023-04-29T08:02:36.644Z,3.40
2023-04-29T08:05:44.418Z,4.37
2023-04-29T08:08:50.734Z,7.10
2023-04-29T08:11:55.549Z,7.10
2023-04-29T08:15:01.923Z,3.40
2023-04-29T08:18:09.252Z,7.42
2023-04-29T08:21:14.576Z,3.55
2023-04-29T08:24:20.801Z,10.68
2023-04-29T08:27:26.895Z,6.75
2023-04-29T08:30:32.468Z,6.08
2023-04-29T08:33:37.724Z,6.28
2023-04-29T08:36:45.666Z,5.28
2023-04-29T08:39:52.962Z,6.47
2023-04-29T08:42:59.637Z,4.70
2023-04-29T08:46:06.964Z,6.03
2023-04-29T08:49:12.570Z,8.15
2023-04-29T08:52:19.078Z,5.45
2023-04-29T08:55:26.100Z,12.68
2023-04-29T08:58:33.880Z,20.10
2023-04-29T09:01:44.294Z,16.20
2023-04-29T09:05:04.748Z,36.88
2023-04-29T09:08:11.392Z,17.27
2023-04-29T09:11:19.117Z,8.05
2023-04-29T09:14:23.782Z,8.60
2023-04-29T09:17:29.589Z,5.67
2023-04-29T09:20:41.032Z,8.55
2023-04-29T09:23:52.674Z,15.78
2023-04-29T09:26:59.236Z,13.95
2023-04-29T09:30:15.993Z,9.38
2023-04-29T09:33:24.350Z,10.70
2023-04-29T09:36:54.282Z,7.15
2023-04-29T09:40:00.314Z,9.78
2023-04-29T09:43:04.979Z,12.40
2023-04-29T09:46:10.404Z,13.65
2023-04-29T09:49:19.158Z,11.80
2023-04-29T09:52:28.106Z,16.23
2023-04-29T09:55:37.029Z,15.13
2023-04-29T09:58:49.603Z,11.40
2023-04-29T10:01:56.314Z,9.95
2023-04-29T10:05:07.763Z,11.48
2023-04-29T10:08:14.262Z,16.62
2023-04-29T10:11:19.448Z,15.18
2023-04-29T10:14:30.257Z,10.53
2023-04-29T10:17:38.878Z,15.23
2023-04-29T10:20:45.243Z,14.55
2023-04-29T10:23:52.182Z,14.18
2023-04-29T10:26:59.628Z,12.30
2023-04-29T10:30:05.540Z,11.05
2023-04-29T10:33:13.996Z,14.40
2023-04-29T10:36:19.518Z,11.93
2023-04-29T10:39:29.737Z,9.48
2023-04-29T10:43:07.593Z,7.83
2023-04-29T10:46:34.262Z,7.83
2023-04-29T10:49:40.190Z,11.50
2023-04-29T10:52:47.724Z,21.33
2023-04-29T10:55:52.917Z,10.18
2023-04-29T10:58:59.316Z,12.47
2023-04-29T11:02:07.571Z,9.18
2023-04-29T11:05:27.774Z,10.40
2023-04-29T11:11:40.172Z,6.85
2023-04-29T11:14:56.522Z,9.58
2023-04-29T11:18:03.073Z,7.00
2023-04-29T11:21:26.371Z,6.95
2023-04-29T11:24:33.000Z,4.33
2023-04-29T11:27:41.604Z,8.93
2023-04-29T11:30:47.221Z,8.28
2023-04-29T11:33:53.573Z,8.60
2023-04-29T11:37:00.042Z,7.65
2023-04-29T11:40:06.550Z,7.10
2023-04-29T11:43:12.626Z,10.75
2023-04-29T11:46:18.215Z,11.30
2023-04-29T11:49:24.997Z,9.35
2023-04-29T11:52:30.825Z,6.97
2023-04-29T11:55:35.421Z,7.55
2023-04-29T11:58:42.221Z,10.50
2023-04-29T12:01:47.537Z,7.12
2023-04-29T12:05:02.452Z,8.28
2023-04-29T12:08:09.924Z,9.25
2023-04-29T12:11:15.783Z,8.98
2023-04-29T12:14:21.535Z,10.98
2023-04-29T12:17:27.824Z,10.98
2023-04-29T12:20:33.302Z,17.15
2023-04-29T12:23:39.058Z,13.45
2023-04-29T12:26:46.790Z,10.72
2023-04-29T12:29:52.991Z,8.75
2023-04-29T12:33:00.476Z,8.30
2023-04-29T12:36:09.127Z,9.30
2023-04-29T12:39:16.715Z,9.23
2023-04-29T12:42:22.978Z,11.57
2023-04-29T12:45:43.686Z,8.18
2023-04-29T12:48:50.543Z,12.33
2023-04-29T12:51:56.398Z,12.10
2023-04-29T12:55:01.626Z,10.08
2023-04-29T12:58:06.734Z,11.30
2023-04-29T13:01:12.388Z,10.53
2023-04-29T13:04:18.805Z,12.25
2023-04-29T13:07:24.652Z,8.28
2023-04-29T13:10:30.886Z,9.78
2023-04-29T13:13:36.985Z,10.88
2023-04-29T13:16:42.035Z,10.05
2023-04-29T13:19:51.892Z,17.80
2023-04-29T13:22:55.261Z,16.67
2023-04-29T13:26:00.414Z,10.38
2023-04-29T13:29:05.682Z,10.72
2023-04-29T13:32:11.535Z,12.45
2023-04-29T13:35:17.037Z,16.67
2023-04-29T13:38:24.954Z,13.90
2023-04-29T13:41:34.038Z,13.22
2023-04-29T13:44:51.021Z,13.88
2023-04-29T13:48:03.056Z,14.47
2023-04-29T13:54:48.029Z,12.40
2023-04-29T14:00:37.392Z,14.68
2023-04-29T14:03:21.058Z,12.35
2023-04-29T14:06:27.356Z,12.37
2023-04-29T14:09:33.350Z,13.50
2023-04-29T14:12:38.682Z,13.30
2023-04-29T14:15:44.428Z,15.90
2023-04-29T14:18:50.076Z,11.30
2023-04-29T14:21:55.599Z,6.50
2023-04-29T14:25:01.112Z,10.75
2023-04-29T14:28:07.086Z,9.03
2023-04-29T14:31:14.354Z,7.45
2023-04-29T14:34:20.356Z,7.00
2023-04-29T14:37:26.423Z,6.08
2023-04-29T14:40:31.760Z,6.80
2023-04-29T14:43:37.635Z,14.55
2023-04-29T14:46:43.057Z,7.85
2023-04-29T14:49:49.463Z,9.65
2023-04-29T14:52:54.664Z,7.05
2023-04-29T14:56:00.500Z,8.70
2023-04-29T14:59:06.460Z,13.68
2023-04-29T15:02:12.923Z,11.88
2023-04-29T15:05:19.511Z,16.25
2023-04-29T15:08:24.677Z,10.70
2023-04-29T15:11:24.277Z,9.73
2023-04-29T15:14:29.847Z,9.88
2023-04-29T15:17:35.583Z,10.78
2023-04-29T15:20:42.532Z,9.38
2023-04-29T15:23:47.676Z,8.23
2023-04-29T15:26:55.053Z,8.93
2023-04-29T15:30:02.973Z,11.70
2023-04-29T15:33:11.897Z,6.75
2023-04-29T15:36:17.895Z,10.18
2023-04-29T15:39:23.912Z,10.50
2023-04-29T15:42:29.598Z,6.50
2023-04-29T15:45:34.878Z,5.95
2023-04-29T15:48:41.979Z,6.60
2023-04-29T15:51:48.646Z,13.50
2023-04-29T15:54:54.405Z,8.55
2023-04-29T15:58:00.219Z,7.05
2023-04-29T16:01:05.971Z,8.50
2023-04-29T16:04:11.941Z,8.68
2023-04-29T16:07:18.524Z,5.10
2023-04-29T16:10:24.066Z,5.08
2023-04-29T16:13:29.370Z,7.20
2023-04-29T16:16:36.155Z,9.93
2023-04-29T16:19:41.703Z,11.18
2023-04-29T16:22:49.204Z,8.15
2023-04-29T16:25:58.487Z,7.00
2023-04-29T16:29:06.008Z,7.37
2023-04-29T16:32:12.784Z,13.18
2023-04-29T16:35:17.583Z,10.90
2023-04-29T16:38:24.218Z,8.30
2023-04-29T16:41:31.157Z,8.53
2023-04-29T16:44:36.287Z,9.30
2023-04-29T16:47:41.904Z,8.05
2023-04-29T16:50:48.640Z,10.38
2023-04-29T16:53:55.840Z,8.38
2023-04-29T16:56:55.701Z,7.87
2023-04-29T16:59:48.570Z,7.40
2023-04-29T17:02:55.688Z,9.48
2023-04-29T17:06:01.230Z,10.35
2023-04-29T17:09:06.958Z,9.33
2023-04-29T17:12:13.457Z,6.42
2023-04-29T17:15:20.049Z,6.37
2023-04-29T17:18:27.063Z,12.37
2023-04-29T17:21:32.594Z,9.90
2023-04-29T17:24:39.448Z,6.75
2023-04-29T17:27:45.523Z,7.90
2023-04-29T17:30:51.578Z,7.12
2023-04-29T17:34:05.727Z,8.03
2023-04-29T17:37:11.101Z,7.03
2023-04-29T17:40:15.852Z,10.23
2023-04-29T17:43:21.933Z,6.08
2023-04-29T17:46:28.489Z,5.75
2023-04-29T17:49:34.429Z,5.00
2023-04-29T17:52:40.384Z,6.08
2023-04-29T17:55:46.974Z,5.37
2023-04-29T17:58:52.982Z,8.73
2023-04-29T18:01:58.814Z,8.20
2023-04-29T18:05:04.081Z,17.27
2023-04-29T18:08:09.829Z,8.90
2023-04-29T18:11:15.638Z,5.78
2023-04-29T18:14:22.257Z,5.40
2023-04-29T18:17:28.412Z,4.58
2023-04-29T18:20:33.654Z,6.50
2023-04-29T18:23:39.418Z,7.60
2023-04-29T18:26:45.016Z,12.60
2023-04-29T18:29:50.235Z,11.45
2023-04-29T18:32:57.003Z,8.63
2023-04-29T18:36:02.484Z,6.70
2023-04-29T18:39:09.001Z,7.37
2023-04-29T18:42:15.783Z,8.63
2023-04-29T18:45:24.426Z,9.83
2023-04-29T18:48:30.118Z,4.12
2023-04-29T18:51:36.600Z,6.50
2023-04-29T18:54:41.887Z,3.52
2023-04-29T18:57:47.031Z,7.00
2023-04-29T19:00:53.615Z,7.65
2023-04-29T19:04:00.342Z,4.65
2023-04-29T19:07:06.723Z,7.37
2023-04-29T19:10:11.972Z,7.00
2023-04-29T19:13:17.831Z,4.65
2023-04-29T19:16:23.146Z,9.43
2023-04-29T19:19:28.587Z,6.60
2023-04-29T19:22:37.060Z,5.03
2023-04-29T19:25:41.953Z,5.28
2023-04-29T19:28:48.880Z,9.90
2023-04-29T19:31:53.962Z,8.23
2023-04-29T19:34:59.315Z,8.13
2023-04-29T19:38:04.887Z,8.28
2023-04-29T19:41:12.109Z,5.40
2023-04-29T19:44:17.994Z,7.30
2023-04-29T19:47:24.700Z,5.55
2023-04-29T19:50:29.580Z,9.95
2023-04-29T19:53:36.922Z,5.03
2023-04-29T19:56:43.309Z,6.75
2023-04-29T19:59:49.547Z,5.22
2023-04-29T20:02:58.401Z,7.50
2023-04-29T20:06:06.354Z,7.40
2023-04-29T20:09:06.195Z,5.58
2023-04-29T20:12:12.299Z,5.72
2023-04-29T20:15:17.836Z,7.65
2023-04-29T20:18:24.372Z,6.03
2023-04-29T20:21:30.646Z,7.40
2023-04-29T20:24:36.447Z,5.83
2023-04-29T20:27:42.017Z,7.53
2023-04-29T20:30:48.616Z,6.30
2023-04-29T20:33:55.739Z,6.45
2023-04-29T20:37:00.710Z,5.28
2023-04-29T20:40:06.291Z,8.10
2023-04-29T20:43:12.321Z,6.15
2023-04-29T20:46:18.932Z,8.43
2023-04-29T20:49:24.837Z,5.75
2023-04-29T20:52:31.501Z,15.10
2023-04-29T20:55:36.391Z,9.65
2023-04-29T20:58:35.885Z,9.25
2023-04-29T21:01:28.882Z,9.48
2023-04-29T21:04:34.103Z,12.37
2023-04-29T21:07:39.855Z,12.23
2023-04-29T21:10:45.442Z,12.37
2023-04-29T21:13:53.579Z,11.83
2023-04-29T21:17:00.360Z,16.32
2023-04-29T21:20:05.532Z,17.15
2023-04-29T21:23:11.603Z,13.88
2023-04-29T21:26:18.077Z,14.13
2023-04-29T21:29:23.654Z,11.63
2023-04-29T21:32:29.780Z,13.55
2023-04-29T21:35:35.595Z,13.15
2023-04-29T21:38:40.617Z,10.85
2023-04-29T21:41:48.160Z,13.08
2023-04-29T21:44:54.403Z,13.95
2023-04-29T21:47:59.588Z,14.65
2023-04-29T21:51:07.379Z,13.48
2023-04-29T21:54:15.085Z,17.77
2023-04-29T21:57:28.892Z,15.10
2023-04-29T22:00:29.788Z,13.58
2023-04-29T22:03:35.229Z,16.80
2023-04-29T22:06:41.604Z,13.08
2023-04-29T22:09:48.249Z,15.48
2023-04-29T22:12:53.667Z,15.68
2023-04-29T22:15:59.519Z,15.63
2023-04-29T22:19:05.280Z,19.90
2023-04-29T22:22:10.813Z,18.65
2023-04-29T22:25:17.102Z,14.98
2023-04-29T22:28:22.413Z,16.55
2023-04-29T22:31:27.454Z,18.05
2023-04-29T22:34:33.181Z,17.82
2023-04-29T22:37:38.723Z,20.75
2023-04-29T22:40:44.820Z,22.27
2023-04-29T22:43:51.220Z,17.82
2023-04-29T22:46:57.378Z,15.83
2023-04-29T22:50:02.246Z,17.70
2023-04-29T22:53:08.715Z,18.82
2023-04-29T22:56:15.576Z,19.65
2023-04-29T22:59:21.574Z,20.92
2023-04-29T23:02:27.272Z,21.40
2023-04-29T23:05:33.893Z,19.75
2023-04-29T23:08:39.441Z,21.23
2023-04-29T23:11:45.695Z,17.77
2023-04-29T23:14:52.101Z,19.32
2023-04-29T23:17:58.005Z,16.55
2023-04-29T23:21:03.663Z,19.27
2023-04-29T23:24:10.443Z,18.57
2023-04-29T23:27:16.044Z,16.35
2023-04-29T23:30:22.426Z,18.55
2023-04-29T23:33:28.077Z,15.00
2023-04-29T23:36:34.468Z,15.15
2023-04-29T23:39:40.157Z,20.65
2023-04-29T23:42:46.532Z,19.27
2023-04-29T23:45:54.464Z,25.85
2023-04-29T23:49:00.668Z,24.57
2023-04-29T23:52:06.767Z,30.15
2023-04-29T23:55:12.365Z,28.35
2023-04-29T23:58:18.649Z,24.90
